Kangerlussuaq, Greenland
Current Conditions -  °F | °C
As of 6:50 PM on Thursday 18 Dec 2014 (Local Time) from BGSF Reporting Station
Few Clouds Few Clouds  
Wind Chill: -50°   Ceiling: Unl
Heat Index: -29°   Visibility: 6mi
Dew Point: -36°   Wind: 8mph
Humidity: 68%   Direction: 70°ENE
Pressure: 29.59"   Gusts: NA
Location:  67°N, 50.69°W
Report Text: BGSF 182050Z AUTO 07007KT 9999NDV FEW120/// M34/M38 Q1002
Loading
Personal Weather Stations






























Interactive Weather Map New forecast layout! Learn more

10-Day Weather Forecast

Advertisements
Track Severe Weather on mobile